Главная страница
METAR-TAF:

METAR-TAF

Аэропорты :

Нуакшот, Мавритания

широта: 18-18-36N, долгота: 015-58-11W, высота над уровнем моря: 3 м

Текущие метеонаблюдения

Эта сводка был подготовлена 38 минут назад, в 05:30 UTC
Ветер 14 Узел от северный
Температура 25°C
Влажность 74%
Давление 1010 hPa
Видимость: 8000 м

METAR: GQNO 230530Z 36014KT 8000 NSC 25/20 Q1010 NOSIG

Время: 06:08 (06:08 UTC)

Прогноз

Эта сводка был подготовлена 38 минут назад, в 05:30 UTC
Прогноз действительный с 23-го 06 UTC до 24-го 12 UTC
Ветер 15 Узел от северный
Видимость: 7000 м
Вероятность 30% :
временами
С 23-го 14 UTC до 23-го 18 UTC
Видимость: 4000 м
Низовая песчаная метель

TAF: GQNO 230530Z 2306/2412 36015KT 7000 NSC PROB30 TEMPO 2314/2318 4000 BLSA

Метеонаблюдения и прогнозы для более 4000 аэропортов (сводки METAR и TAF).

Имеющиеся станции представлены на карте желтыми и красными точками.

Чтобы увидеть название станции, наведите на нее мышь.

Затем щелкните, чтобы увидеть метеонаблюдения и метеопрогнозы.

Управление картой: чтобы увеличить масштаб, щелкните зеленые кнопки с черным крестиком; чтобы уменьшить масштаб, щелкните зеленую кнопку с тире; для просмотра соседних карт щелкайте зеленые стрелки.


METAR-TAF: